Time;durP1;ratioP1;P1;durP2;ratioP2;P2;SDS_P1;SDS_P2;PMS_P1;PMS_P2;Temp;Humidity;BMP_temperature;BMP_pressure;BME280_temperature;BME280_humidity;BME280_pressure;Samples;Min_cycle;Max_cycle;Signal;HPM_P1;HPM_P2
2023/04/30 00:00:35;;;;;;;21.98;17.48;;;10.40;99.90;;;9.41;100.00;98178.00;4996844;28;20042;-80
2023/04/30 00:03:03;;;;;;;20.25;15.70;;;10.40;99.90;;;9.37;100.00;98185.91;4987537;28;20398;-80
2023/04/30 00:05:30;;;;;;;21.70;18.30;;;10.40;99.90;;;9.35;100.00;98185.09;4986863;28;20803;-81
2023/04/30 00:07:57;;;;;;;23.27;17.40;;;10.30;99.90;;;9.39;100.00;98184.97;4992670;28;20077;-79
2023/04/30 00:10:24;;;;;;;21.70;16.45;;;10.30;99.90;;;9.41;100.00;98182.34;4994168;28;20038;-79
2023/04/30 00:12:51;;;;;;;21.48;17.48;;;10.40;99.90;;;9.38;100.00;98182.44;4994353;28;20046;-80
2023/04/30 00:15:20;;;;;;;20.98;15.80;;;10.30;99.90;;;9.52;100.00;98182.03;4996776;28;20049;-79
2023/04/30 00:17:47;;;;;;;23.05;17.60;;;10.30;99.90;;;9.45;100.00;98177.94;4993293;28;20046;-81
2023/04/30 00:20:15;;;;;;;26.30;18.52;;;10.40;99.90;;;9.48;100.00;98170.06;4989369;28;20146;-80
2023/04/30 00:22:42;;;;;;;21.67;16.52;;;10.40;99.90;;;9.58;100.00;98171.50;4994321;28;20408;-79
2023/04/30 00:25:10;;;;;;;22.00;16.10;;;10.40;99.90;;;9.52;100.00;98164.75;4996127;28;20074;-79
2023/04/30 00:27:37;;;;;;;19.75;16.48;;;10.50;99.90;;;9.64;100.00;98163.53;4993762;28;20132;-80
2023/04/30 00:30:07;;;;;;;20.15;14.68;;;10.50;99.90;;;9.76;100.00;98157.13;4981915;28;20593;-80
2023/04/30 00:32:34;;;;;;;20.25;16.38;;;10.50;99.90;;;9.71;100.00;98161.63;4993515;28;20157;-80
2023/04/30 00:35:02;;;;;;;19.08;15.35;;;10.60;99.90;;;9.64;100.00;98161.78;4996139;28;20065;-80
2023/04/30 00:37:30;;;;;;;20.20;15.95;;;10.60;99.90;;;9.74;100.00;98154.59;4993395;28;20042;-79
2023/04/30 00:39:57;;;;;;;19.23;15.80;;;10.60;99.90;;;9.77;100.00;98159.69;4989939;28;20046;-79
2023/04/30 00:42:25;;;;;;;21.90;15.57;;;10.60;99.90;;;9.84;100.00;98153.41;4991338;28;20054;-80
2023/04/30 00:44:52;;;;;;;19.08;15.90;;;10.60;99.90;;;9.83;100.00;98156.09;4995577;28;20064;-79
2023/04/30 00:47:19;;;;;;;19.83;16.70;;;10.60;99.90;;;9.65;100.00;98149.69;4992236;28;20050;-80
2023/04/30 00:49:47;;;;;;;19.58;15.85;;;10.70;99.90;;;9.63;100.00;98154.91;4991169;28;20137;-80
2023/04/30 00:52:14;;;;;;;21.73;15.50;;;10.60;99.90;;;9.51;100.00;98152.69;4973612;28;20137;-80
2023/04/30 00:54:41;;;;;;;21.60;15.80;;;10.60;99.90;;;9.66;100.00;98151.38;4993451;28;20049;-80
2023/04/30 00:57:12;;;;;;;21.73;16.30;;;10.60;99.90;;;9.57;100.00;98149.91;4998030;28;20125;-78
2023/04/30 00:59:41;;;;;;;19.08;16.73;;;10.60;99.90;;;9.60;100.00;98147.25;4999678;28;20114;-79
2023/04/30 01:02:09;;;;;;;19.67;16.05;;;10.50;99.90;;;9.58;100.00;98140.41;4996585;28;20076;-80
2023/04/30 01:04:36;;;;;;;17.30;15.00;;;10.60;99.90;;;9.60;100.00;98139.47;4995623;28;20093;-79
2023/04/30 01:07:03;;;;;;;19.80;15.80;;;10.50;99.90;;;9.53;100.00;98137.09;4993253;28;21470;-80
2023/04/30 01:09:31;;;;;;;20.73;15.82;;;10.50;99.90;;;9.56;100.00;98140.44;4987843;28;20078;-79
2023/04/30 01:12:20;;;;;;;17.52;14.52;;;10.50;99.90;;;9.73;100.00;98139.09;4978256;28;20050;-79
2023/04/30 01:15:24;;;;;;;20.67;15.55;;;10.50;99.90;;;9.74;100.00;98123.50;4988401;28;20050;-80
2023/04/30 01:18:07;;;;;;;22.73;15.55;;;10.50;99.90;;;9.78;100.00;98129.41;4989416;28;20130;-80
2023/04/30 01:20:55;;;;;;;16.15;13.57;;;10.50;99.90;;;9.78;100.00;98126.81;4991993;28;20052;-80
2023/04/30 01:23:34;;;;;;;19.73;14.90;;;10.60;99.90;;;9.74;100.00;98120.03;4988168;28;20054;-80
2023/04/30 01:26:11;;;;;;;19.20;14.85;;;10.60;99.90;;;9.64;100.00;98124.66;5006417;28;20057;-79
2023/04/30 01:28:42;;;;;;;18.02;14.60;;;10.60;99.90;;;9.46;100.00;98120.03;4971751;28;20057;-80
2023/04/30 01:31:19;;;;;;;19.13;15.13;;;10.60;99.90;;;9.44;100.00;98120.06;4988214;28;20046;-79
2023/04/30 01:33:46;;;;;;;19.50;13.43;;;10.50;99.90;;;9.51;100.00;98131.97;4993345;28;20046;-80
2023/04/30 01:36:50;;;;;;;18.10;14.65;;;10.40;99.90;;;9.60;100.00;98134.28;4995427;28;20057;-79
2023/04/30 01:39:54;;;;;;;17.52;14.43;;;10.40;99.90;;;9.71;100.00;98131.34;4997108;28;20058;-80
2023/04/30 01:42:50;;;;;;;16.05;13.38;;;10.50;99.90;;;9.66;100.00;98129.81;4988314;28;20202;-79
2023/04/30 01:45:35;;;;;;;18.80;13.38;;;10.50;99.90;;;9.63;100.00;98120.38;4987111;28;20371;-79
2023/04/30 01:48:32;;;;;;;15.10;12.48;;;10.60;99.90;;;9.62;100.00;98119.53;4988488;28;20081;-79
2023/04/30 01:51:21;;;;;;;18.00;13.85;;;10.60;99.90;;;9.64;100.00;98122.06;4993872;28;20145;-80
2023/04/30 01:53:48;;;;;;;15.48;13.77;;;10.60;99.90;;;9.56;100.00;98126.66;5006687;28;20848;-79
2023/04/30 01:56:31;;;;;;;14.57;12.40;;;10.60;99.90;;;9.55;100.00;98123.19;4989189;28;20427;-79
2023/04/30 01:59:00;;;;;;;17.00;13.35;;;10.50;99.90;;;9.55;100.00;98112.81;5001640;28;20084;-80
2023/04/30 02:01:30;;;;;;;18.88;15.40;;;10.50;99.90;;;9.50;100.00;98108.69;4995565;28;20109;-79
2023/04/30 02:03:57;;;;;;;17.50;13.93;;;10.40;99.90;;;9.46;100.00;98104.47;4999153;28;20081;-80
2023/04/30 02:06:30;;;;;;;14.40;12.88;;;10.50;99.90;;;9.51;100.00;98100.00;4967149;28;20076;-80
2023/04/30 02:09:01;;;;;;;15.82;13.65;;;10.50;99.90;;;9.34;100.00;98103.94;5012768;28;20060;-79
2023/04/30 02:11:29;;;;;;;20.05;16.38;;;10.40;99.90;;;9.40;100.00;98101.19;4983589;28;20422;-79
2023/04/30 02:13:56;;;;;;;19.30;14.57;;;10.30;99.90;;;9.51;100.00;98094.81;4983162;28;20498;-80
2023/04/30 02:16:41;;;;;;;17.75;14.93;;;10.30;99.90;;;9.46;100.00;98094.09;4993018;28;20156;-79
2023/04/30 02:19:10;;;;;;;21.30;15.77;;;10.40;99.90;;;9.45;100.00;98095.03;4984563;28;20061;-80
2023/04/30 02:21:37;;;;;;;17.38;13.82;;;10.40;99.90;;;9.52;100.00;98099.13;4979067;28;20058;-80
2023/04/30 02:24:05;;;;;;;18.55;15.52;;;10.40;99.90;;;9.48;100.00;98094.91;4991076;28;20421;-80
2023/04/30 02:26:32;;;;;;;19.05;15.43;;;10.40;99.90;;;9.39;100.00;98094.28;4998025;28;20422;-80
2023/04/30 02:28:58;;;;;;;18.55;15.27;;;10.40;99.90;;;9.40;100.00;98093.41;4979363;28;20054;-79
2023/04/30 02:31:25;;;;;;;18.20;16.30;;;10.40;99.90;;;9.49;100.00;98089.69;4994137;28;20148;-79
2023/04/30 02:33:53;;;;;;;18.52;15.88;;;10.40;99.90;;;9.47;100.00;98088.06;5005361;28;20042;-80
2023/04/30 02:36:20;;;;;;;18.08;16.00;;;10.40;99.90;;;9.46;100.00;98092.34;4995886;28;20049;-79
2023/04/30 02:38:47;;;;;;;18.05;16.15;;;10.40;99.90;;;9.54;100.00;98097.34;5011557;28;20486;-80
2023/04/30 02:41:14;;;;;;;20.77;16.48;;;10.30;99.90;;;9.42;100.00;98093.38;4996620;28;20061;-79
2023/04/30 02:43:43;;;;;;;17.70;14.65;;;10.40;99.90;;;9.46;100.00;98094.94;4979877;28;20105;-80
2023/04/30 02:46:10;;;;;;;20.05;14.77;;;10.40;99.90;;;9.58;100.00;98098.94;4991290;28;20050;-79
2023/04/30 02:48:37;;;;;;;18.67;16.20;;;10.40;99.90;;;9.61;100.00;98091.06;4997163;28;20046;-79
2023/04/30 02:51:05;;;;;;;17.63;15.60;;;10.50;99.90;;;9.72;100.00;98093.34;5010381;28;20057;-80
2023/04/30 02:53:32;;;;;;;17.88;15.35;;;10.50;99.90;;;9.72;100.00;98093.34;4991015;28;20042;-79
2023/04/30 02:55:59;;;;;;;20.27;15.55;;;10.50;99.90;;;9.55;100.00;98089.50;4995867;28;20051;-80
2023/04/30 02:58:26;;;;;;;18.63;15.73;;;10.60;99.90;;;9.67;100.00;98093.47;4997711;28;20608;-79
2023/04/30 03:00:54;;;;;;;18.33;15.95;;;10.50;99.90;;;9.51;100.00;98087.03;4971426;28;20043;-80
2023/04/30 03:03:23;;;;;;;20.67;16.95;;;10.50;99.90;;;9.45;100.00;98084.66;5002898;28;20064;-80
2023/04/30 03:05:50;;;;;;;18.50;16.08;;;10.50;99.90;;;9.40;100.00;98077.84;4991749;28;20507;-80
2023/04/30 03:08:17;;;;;;;17.45;15.48;;;10.50;99.90;;;9.51;100.00;98085.31;4995694;28;20645;-80
2023/04/30 03:10:44;;;;;;;19.60;15.95;;;10.40;99.90;;;9.49;100.00;98079.34;4997796;28;20052;-79
2023/04/30 03:13:11;;;;;;;21.92;17.92;;;10.40;99.90;;;9.49;100.00;98084.50;4979307;28;20078;-80
2023/04/30 03:15:38;;;;;;;20.25;16.92;;;10.40;99.90;;;9.35;100.00;98086.66;5003309;28;20471;-80
2023/04/30 03:18:06;;;;;;;24.90;19.27;;;10.40;99.90;;;9.34;100.00;98082.38;4985444;28;20097;-80
2023/04/30 03:20:33;;;;;;;19.48;17.38;;;10.30;99.90;;;9.29;100.00;98081.66;5000482;28;20046;-80
2023/04/30 03:23:00;;;;;;;25.98;19.02;;;10.30;99.90;;;9.30;100.00;98083.34;4986983;28;20054;-80
2023/04/30 03:25:27;;;;;;;23.65;20.52;;;10.30;99.90;;;9.17;100.00;98078.53;4990259;28;20057;-80
2023/04/30 03:27:55;;;;;;;24.95;20.48;;;10.20;99.90;;;9.23;100.00;98079.25;4993882;28;20049;-79
2023/04/30 03:30:23;;;;;;;25.23;21.15;;;10.20;99.90;;;9.22;100.00;98083.59;4996933;28;20047;-80
2023/04/30 03:32:50;;;;;;;24.70;20.60;;;10.20;99.90;;;9.27;100.00;98076.53;4996720;28;20050;-80
2023/04/30 03:35:18;;;;;;;26.98;22.08;;;10.20;99.90;;;9.20;100.00;98083.63;4993832;28;20141;-80
2023/04/30 03:37:45;;;;;;;25.70;22.00;;;10.20;99.90;;;9.26;100.00;98090.38;4978163;28;20050;-80
2023/04/30 03:40:12;;;;;;;25.80;22.25;;;10.20;99.90;;;9.20;100.00;98081.03;4994113;28;20598;-80
2023/04/30 03:42:39;;;;;;;27.85;22.83;;;10.20;99.90;;;9.23;100.00;98080.09;4982917;28;20512;-80
2023/04/30 03:45:07;;;;;;;23.65;21.10;;;10.20;99.90;;;9.21;100.00;98077.56;4985769;28;20118;-79
2023/04/30 03:47:35;;;;;;;25.25;21.35;;;10.20;99.90;;;9.19;100.00;98078.47;4998178;28;20072;-79
2023/04/30 03:50:03;;;;;;;27.17;22.20;;;10.20;99.90;;;9.15;100.00;98077.72;5001151;28;20046;-79
2023/04/30 03:52:33;;;;;;;30.85;22.48;;;10.10;99.90;;;9.14;100.00;98075.19;5002007;28;20054;-80
2023/04/30 03:55:00;;;;;;;29.38;22.98;;;10.10;99.90;;;9.12;100.00;98082.13;4995972;28;20046;-80
2023/04/30 03:57:28;;;;;;;25.63;22.58;;;10.00;99.90;;;9.16;100.00;98079.41;4992132;28;20046;-80
2023/04/30 03:59:55;;;;;;;26.83;23.02;;;10.10;99.90;;;9.24;100.00;98067.97;4972216;28;20080;-80
2023/04/30 04:02:23;;;;;;;28.15;23.50;;;10.10;99.90;;;9.09;100.00;98077.91;4994505;28;20525;-79
2023/04/30 04:04:51;;;;;;;27.42;23.20;;;10.10;99.90;;;9.16;100.00;98071.66;4983988;28;20054;-80
2023/04/30 04:07:18;;;;;;;27.13;22.77;;;10.00;99.90;;;9.13;100.00;98076.09;4993068;28;20912;-80
2023/04/30 04:09:46;;;;;;;25.30;22.58;;;10.00;99.90;;;9.11;100.00;98076.13;4989326;28;20046;-80
2023/04/30 04:12:13;;;;;;;26.98;23.92;;;10.10;99.90;;;9.07;100.00;98079.69;4997953;28;20039;-80
2023/04/30 04:14:40;;;;;;;28.27;24.10;;;10.10;99.90;;;9.09;100.00;98079.66;4998309;28;20057;-79
2023/04/30 04:17:07;;;;;;;27.98;23.27;;;10.00;99.90;;;9.09;100.00;98085.66;4991421;28;20043;-80
2023/04/30 04:19:34;;;;;;;28.40;24.58;;;10.00;99.90;;;9.10;100.00;98094.28;4966818;28;20132;-80
2023/04/30 04:22:01;;;;;;;27.63;23.52;;;10.00;99.90;;;9.04;100.00;98087.53;5012334;28;20136;-80
2023/04/30 04:24:28;;;;;;;24.30;21.55;;;10.00;99.90;;;9.03;100.00;98090.16;4988324;28;20060;-79
2023/04/30 04:26:56;;;;;;;25.23;21.80;;;10.00;99.90;;;9.03;100.00;98097.94;5001505;28;20101;-79
2023/04/30 04:29:25;;;;;;;26.27;22.65;;;10.00;99.90;;;9.03;100.00;98103.97;4995214;28;20499;-80
2023/04/30 04:31:54;;;;;;;27.77;23.05;;;10.00;99.90;;;9.12;100.00;98101.13;4995055;28;20053;-80
2023/04/30 04:34:22;;;;;;;25.00;21.65;;;10.00;99.90;;;9.13;100.00;98101.97;4991456;28;20061;-80
2023/04/30 04:36:49;;;;;;;25.92;23.17;;;10.00;99.90;;;9.12;100.00;98093.38;4999105;28;20053;-79
2023/04/30 04:39:18;;;;;;;25.38;22.30;;;10.00;99.90;;;9.14;100.00;98098.47;4980429;28;20076;-80
2023/04/30 04:41:45;;;;;;;27.35;23.83;;;10.00;99.90;;;9.16;100.00;98096.69;4993196;28;20054;-80
2023/04/30 04:44:12;;;;;;;25.95;23.15;;;10.00;99.90;;;9.17;100.00;98090.66;4991864;28;20100;-80
2023/04/30 04:46:43;;;;;;;31.05;23.52;;;10.10;99.90;;;9.22;100.00;98091.34;4995765;28;20138;-79
2023/04/30 04:49:13;;;;;;;25.75;22.95;;;10.00;99.90;;;9.09;100.00;98095.19;4979933;28;20073;-79
2023/04/30 04:51:41;;;;;;;26.10;22.35;;;10.00;99.90;;;9.15;100.00;98087.25;4991787;28;20046;-80
2023/04/30 04:54:08;;;;;;;26.23;22.70;;;10.10;99.90;;;9.32;100.00;98092.78;4995850;28;20912;-80
2023/04/30 04:56:35;;;;;;;27.45;22.45;;;10.10;99.90;;;9.40;100.00;98096.00;4995048;28;20100;-80
2023/04/30 04:59:02;;;;;;;27.33;22.95;;;10.20;99.90;;;9.38;100.00;98099.53;4983599;28;20047;-80
2023/04/30 05:01:30;;;;;;;26.50;23.70;;;10.20;99.90;;;9.35;100.00;98092.69;4994036;28;20050;-80
2023/04/30 05:03:57;;;;;;;26.67;22.13;;;10.20;99.90;;;9.36;100.00;98091.78;4974829;28;20039;-79
2023/04/30 05:06:25;;;;;;;23.65;21.15;;;10.30;99.90;;;9.35;100.00;98095.28;4999059;28;20136;-79
2023/04/30 05:08:53;;;;;;;26.17;23.30;;;10.30;99.90;;;9.43;100.00;98092.47;4998431;28;20043;-79
2023/04/30 05:11:21;;;;;;;26.80;23.55;;;10.30;99.90;;;9.60;100.00;98089.34;4975681;28;20419;-80
2023/04/30 05:13:48;;;;;;;26.23;22.25;;;10.30;99.90;;;9.50;100.00;98091.38;4981383;28;20045;-79
2023/04/30 05:16:16;;;;;;;26.70;21.35;;;10.30;99.90;;;9.56;100.00;98085.19;4983978;28;20057;-80
2023/04/30 05:18:43;;;;;;;26.67;22.05;;;10.40;99.90;;;9.51;100.00;98089.63;4997021;28;20043;-79
2023/04/30 05:21:10;;;;;;;25.25;22.38;;;10.30;99.90;;;9.53;100.00;98085.25;4999291;28;20078;-80
2023/04/30 05:23:38;;;;;;;24.60;20.65;;;10.40;99.90;;;9.58;100.00;98094.59;4997604;28;20437;-80
2023/04/30 05:26:06;;;;;;;23.58;21.08;;;10.50;99.90;;;9.74;100.00;98088.94;4991455;28;20137;-79
2023/04/30 05:28:33;;;;;;;25.33;21.58;;;10.50;99.90;;;9.77;100.00;98089.69;4999172;28;20054;-80
2023/04/30 05:31:00;;;;;;;26.13;22.20;;;10.50;99.90;;;9.57;100.00;98079.94;4979764;28;20046;-80
2023/04/30 05:33:27;;;;;;;26.63;21.10;;;10.60;99.90;;;9.61;100.00;98081.53;4990289;28;20054;-81
2023/04/30 05:35:55;;;;;;;29.58;21.20;;;10.60;99.90;;;9.69;100.00;98083.88;4999779;28;20047;-80
2023/04/30 05:38:22;;;;;;;24.85;22.00;;;10.60;99.90;;;9.74;100.00;98081.16;5000018;28;20050;-80
2023/04/30 05:40:49;;;;;;;25.58;21.27;;;10.60;99.90;;;9.81;100.00;98083.53;4983815;28;20133;-79
2023/04/30 05:43:17;;;;;;;24.92;21.92;;;10.60;99.90;;;9.91;100.00;98081.47;4995926;28;20054;-80
2023/04/30 05:45:44;;;;;;;24.73;20.98;;;10.60;99.90;;;9.80;100.00;98078.38;4999769;28;20057;-79
2023/04/30 05:48:12;;;;;;;21.58;19.25;;;10.70;99.90;;;9.87;100.00;98085.06;4983449;28;20053;-80
2023/04/30 05:50:39;;;;;;;24.52;21.25;;;10.70;99.90;;;9.87;100.00;98081.63;4965943;28;20073;-80
2023/04/30 05:53:07;;;;;;;25.35;20.67;;;10.70;99.90;;;9.91;100.00;98081.47;4995766;28;20133;-80
2023/04/30 05:55:35;;;;;;;23.42;19.08;;;10.80;99.90;;;9.88;100.00;98073.81;4992779;28;20120;-80
2023/04/30 05:58:02;;;;;;;24.95;20.40;;;10.80;99.90;;;9.88;100.00;98071.22;4994059;28;20038;-81
2023/04/30 06:00:29;;;;;;;27.15;19.90;;;10.70;99.90;;;9.92;100.00;98078.00;4998117;28;20047;-80
2023/04/30 06:02:56;;;;;;;21.63;19.08;;;10.80;99.90;;;10.17;100.00;98077.19;4983849;28;20151;-81
2023/04/30 06:05:23;;;;;;;23.35;18.80;;;10.80;99.90;;;10.18;100.00;98077.16;4978337;28;20050;-81
2023/04/30 06:07:50;;;;;;;24.27;19.63;;;10.90;99.90;;;10.21;100.00;98076.19;4997632;28;20050;-81
2023/04/30 06:10:17;;;;;;;21.20;17.80;;;11.00;99.90;;;10.12;100.00;98068.72;4976698;28;20085;-81
2023/04/30 06:12:45;;;;;;;22.95;19.77;;;11.00;99.90;;;10.22;100.00;98058.00;4992162;28;20133;-81
2023/04/30 06:15:12;;;;;;;21.65;17.67;;;11.10;99.90;;;10.24;100.00;98057.91;4980444;28;20534;-80
2023/04/30 06:17:39;;;;;;;21.73;16.95;;;11.10;99.90;;;10.37;100.00;98053.22;5001182;28;20046;-80
2023/04/30 06:20:07;;;;;;;20.70;17.00;;;11.10;99.90;;;10.40;100.00;98047.91;4985288;28;20129;-80
2023/04/30 06:22:34;;;;;;;19.15;16.27;;;11.20;99.90;;;10.39;100.00;98049.66;4998155;28;20140;-79
2023/04/30 06:25:02;;;;;;;17.55;15.07;;;11.30;99.90;;;10.45;100.00;98044.25;4993618;28;20042;-80
2023/04/30 06:27:31;;;;;;;18.77;15.43;;;11.30;99.90;;;10.52;100.00;98044.91;4994582;28;20051;-80
2023/04/30 06:29:59;;;;;;;17.77;15.48;;;11.30;99.90;;;10.55;100.00;98041.34;5000094;28;20052;-80
2023/04/30 06:32:27;;;;;;;22.52;16.25;;;11.40;99.90;;;10.50;100.00;98040.66;5000953;28;20054;-80
2023/04/30 06:34:55;;;;;;;18.48;16.48;;;11.40;99.90;;;10.40;100.00;98043.59;5001023;28;20054;-80
2023/04/30 06:37:22;;;;;;;17.83;14.55;;;11.40;99.90;;;10.44;100.00;98041.72;4984160;28;20058;-80
2023/04/30 06:39:50;;;;;;;18.42;16.20;;;11.40;99.90;;;10.91;100.00;98036.59;4982590;28;20118;-80
2023/04/30 06:42:17;;;;;;;17.65;14.88;;;11.50;99.90;;;10.61;100.00;98036.78;4991114;28;20129;-80
2023/04/30 06:44:46;;;;;;;16.83;15.00;;;11.60;99.90;;;10.70;100.00;98026.97;5001264;28;20050;-81
2023/04/30 06:47:13;;;;;;;19.27;14.88;;;11.70;99.90;;;10.74;100.00;98036.34;4997629;28;20063;-80
2023/04/30 06:49:40;;;;;;;16.58;14.80;;;11.70;99.90;;;10.85;100.00;98034.19;4987975;28;20046;-80
2023/04/30 06:52:08;;;;;;;15.18;13.57;;;11.70;99.90;;;10.73;100.00;98034.66;5002566;28;20525;-80
2023/04/30 06:54:35;;;;;;;15.68;12.85;;;11.70;99.90;;;10.92;100.00;98040.03;4995961;28;20061;-80
2023/04/30 06:57:02;;;;;;;16.88;14.18;;;11.70;99.90;;;11.23;100.00;98031.94;4991994;28;20046;-81
2023/04/30 06:59:29;;;;;;;17.27;13.70;;;11.90;99.90;;;11.15;100.00;98026.19;4991947;28;20042;-80
2023/04/30 07:01:56;;;;;;;17.27;13.40;;;12.00;99.90;;;11.15;100.00;98021.81;5002179;28;20062;-80
2023/04/30 07:04:23;;;;;;;15.07;13.05;;;12.10;99.90;;;11.09;100.00;98019.47;4977598;28;20047;-81
2023/04/30 07:06:51;;;;;;;15.05;13.45;;;12.00;99.90;;;11.34;100.00;98021.16;4996095;28;20061;-81
2023/04/30 07:09:18;;;;;;;16.13;13.38;;;12.00;99.90;;;11.36;100.00;98022.78;5001822;28;20152;-79
2023/04/30 07:11:45;;;;;;;16.52;12.30;;;12.20;99.90;;;11.48;100.00;98024.88;4997158;28;20061;-79
2023/04/30 07:14:12;;;;;;;15.48;12.30;;;12.30;99.90;;;11.32;100.00;98017.75;4998159;28;20046;-80
2023/04/30 07:16:39;;;;;;;15.77;12.65;;;12.30;99.90;;;11.42;100.00;98008.69;4995016;28;20054;-80
2023/04/30 07:19:06;;;;;;;14.70;11.82;;;12.20;99.90;;;11.30;100.00;98012.63;5000799;28;20073;-79
2023/04/30 07:21:34;;;;;;;14.23;11.40;;;12.30;99.90;;;11.56;100.00;98010.75;5003413;28;20094;-80
2023/04/30 07:24:01;;;;;;;15.88;12.55;;;12.30;99.90;;;11.13;100.00;98015.00;5002186;28;20533;-80
2023/04/30 07:26:28;;;;;;;15.35;12.13;;;12.30;99.90;;;11.34;100.00;98011.59;4982303;28;20528;-80
2023/04/30 07:28:55;;;;;;;13.85;11.38;;;12.40;99.90;;;11.53;100.00;98016.91;4999509;28;20050;-81
2023/04/30 07:31:24;;;;;;;11.70;10.32;;;12.40;99.90;;;11.44;100.00;98017.28;5000357;28;20043;-80
2023/04/30 07:33:54;;;;;;;13.82;10.48;;;12.50;99.90;;;11.50;100.00;98006.66;4999990;28;20049;-81
2023/04/30 07:36:21;;;;;;;12.90;10.43;;;12.50;99.90;;;11.45;100.00;98009.44;5000141;28;20050;-80
2023/04/30 07:38:49;;;;;;;14.82;10.98;;;12.40;99.90;;;11.32;100.00;98002.16;4965144;28;20049;-80
2023/04/30 07:41:16;;;;;;;17.67;10.93;;;12.40;99.90;;;11.44;100.00;98012.91;4999684;28;20077;-81
2023/04/30 07:43:43;;;;;;;15.38;11.05;;;12.30;99.90;;;11.58;100.00;98006.31;4993950;28;20134;-80
2023/04/30 07:46:12;;;;;;;15.95;11.05;;;12.40;99.90;;;11.52;100.00;98003.06;4998389;28;20060;-80
2023/04/30 07:48:39;;;;;;;12.15;9.27;;;12.50;99.90;;;11.98;100.00;97997.78;4999159;28;20108;-79
2023/04/30 07:51:06;;;;;;;12.73;9.73;;;;;;;11.97;100.00;98003.88;4991618;28;20050;-80
2023/04/30 07:53:33;;;;;;;17.35;9.93;;;12.80;99.90;;;11.91;100.00;98005.00;4991099;28;20081;-80
2023/04/30 07:56:00;;;;;;;12.93;9.85;;;12.90;99.90;;;12.04;100.00;98001.88;4996172;28;20054;-80
2023/04/30 07:58:27;;;;;;;12.65;9.18;;;13.00;99.90;;;12.35;100.00;97999.69;4964531;28;20138;-81
2023/04/30 08:00:54;;;;;;;15.07;10.23;;;13.10;99.90;;;12.16;100.00;98000.53;4980705;28;20046;-81
2023/04/30 08:03:31;;;;;;;17.00;10.10;;;13.20;99.90;;;12.41;100.00;97995.13;4984369;28;20050;-80
2023/04/30 08:05:59;;;;;;;14.02;9.57;;;13.20;99.90;;;12.59;100.00;97991.72;4973051;28;20047;-80
2023/04/30 08:08:26;;;;;;;12.48;8.18;;;13.30;99.90;;;12.44;100.00;97984.59;4963804;28;20338;-80
2023/04/30 08:10:53;;;;;;;11.32;8.88;;;13.40;99.90;;;12.53;100.00;97998.03;4943439;28;20070;-81
2023/04/30 08:13:20;;;;;;;16.90;9.55;;;13.30;99.90;;;12.29;100.00;97999.09;4969541;28;20051;-81
2023/04/30 08:15:48;;;;;;;10.80;8.15;;;13.30;99.90;;;12.29;100.00;97993.88;4959051;28;20054;-82
2023/04/30 08:18:15;;;;;;;10.88;7.82;;;13.30;99.90;;;13.22;100.00;98001.06;4980702;28;20057;-81
2023/04/30 08:20:42;;;;;;;13.55;7.00;;;13.50;99.90;;;13.17;100.00;97990.84;4972360;28;20059;-81
2023/04/30 08:23:09;;;;;;;13.00;7.78;;;13.70;99.90;;;12.63;100.00;97995.03;4967034;28;20073;-81
2023/04/30 08:25:36;;;;;;;10.23;7.60;;;13.60;99.90;;;12.95;100.00;97994.44;4976910;28;20046;-78
2023/04/30 08:28:06;;;;;;;9.93;7.43;;;13.60;99.90;;;13.06;100.00;97995.69;4977128;28;20050;-80
2023/04/30 08:30:34;;;;;;;9.43;7.82;;;13.80;99.90;;;13.38;100.00;98000.28;4979130;28;20047;-81
2023/04/30 08:33:01;;;;;;;11.55;7.30;;;13.90;99.90;;;13.08;100.00;98002.53;4950067;28;20047;-81
2023/04/30 08:35:28;;;;;;;10.32;6.70;;;;;;;13.33;100.00;97993.63;4975079;28;20081;-80
2023/04/30 08:37:56;;;;;;;9.00;7.55;;;14.10;99.90;;;13.12;100.00;97985.84;4968608;28;20152;-80
2023/04/30 08:40:23;;;;;;;10.27;7.75;;;14.20;99.90;;;13.22;100.00;97991.47;4968268;28;20731;-79
2023/04/30 08:43:10;;;;;;;11.18;7.75;;;14.10;99.90;;;13.12;100.00;97983.25;4959580;28;20061;-78
2023/04/30 08:45:37;;;;;;;10.75;6.80;;;14.10;99.90;;;13.15;100.00;97987.47;4972748;28;20065;-78
2023/04/30 08:48:15;;;;;;;13.65;6.78;;;14.10;99.90;;;13.07;100.00;97992.16;4965302;28;20053;-79
2023/04/30 08:50:42;;;;;;;10.52;6.72;;;14.00;99.90;;;13.39;100.00;97981.13;4966426;28;20750;-78
2023/04/30 08:53:12;;;;;;;6.47;5.28;;;14.10;99.90;;;13.68;100.00;97989.31;4972383;28;20057;-79
2023/04/30 08:55:40;;;;;;;6.25;4.82;;;14.40;99.90;;;13.97;100.00;97987.03;4963645;28;20471;-79
2023/04/30 08:58:09;;;;;;;8.95;5.97;;;14.60;99.90;;;14.28;100.00;97975.03;4971848;28;20042;-78
2023/04/30 09:00:38;;;;;;;10.13;6.05;;;15.00;99.90;;;13.72;100.00;97990.00;4953422;28;20530;-78
2023/04/30 09:03:07;;;;;;;9.93;6.47;;;14.90;99.90;;;13.47;100.00;97987.75;4956310;28;20042;-79
2023/04/30 09:05:37;;;;;;;10.18;6.43;;;14.70;99.90;;;13.58;100.00;97993.28;4956517;28;20057;-78
2023/04/30 09:08:07;;;;;;;8.70;5.43;;;14.60;99.90;;;13.94;100.00;97987.19;4963685;28;20047;-79
2023/04/30 09:10:35;;;;;;;9.48;6.43;;;14.70;99.90;;;14.08;100.00;97989.13;4969517;28;20101;-79
2023/04/30 09:13:07;;;;;;;7.38;4.25;;;14.80;99.90;;;14.32;100.00;97980.06;4969730;28;20130;-79
2023/04/30 09:15:39;;;;;;;7.68;4.25;;;15.00;99.90;;;14.24;100.00;97990.03;4971873;28;20082;-78
2023/04/30 09:18:17;;;;;;;6.63;3.47;;;15.00;99.90;;;14.36;100.00;97983.34;4982233;28;20137;-79
2023/04/30 09:21:04;;;;;;;6.45;4.13;;;15.10;99.90;;;14.79;100.00;97984.56;4966892;28;20047;-79
2023/04/30 09:23:31;;;;;;;6.25;3.63;;;15.60;99.90;;;14.64;100.00;97975.78;4972296;28;20582;-81
2023/04/30 09:26:00;;;;;;;4.75;2.70;;;15.70;99.90;;;14.80;100.00;97978.44;4968391;28;20047;-80
2023/04/30 09:28:28;;;;;;;4.43;2.60;;;15.70;99.90;;;14.84;100.00;97994.78;4973348;28;20479;-78
2023/04/30 09:30:56;;;;;;;6.50;3.03;;;15.60;99.90;;;14.73;100.00;97984.06;4973670;28;20079;-78
2023/04/30 09:33:24;;;;;;;4.85;2.35;;;15.60;99.90;;;14.27;100.00;97975.97;4961274;28;20062;-78
2023/04/30 09:35:52;;;;;;;3.75;1.85;;;15.30;99.90;;;14.09;100.00;97986.41;4981057;28;20091;-80
2023/04/30 09:38:31;;;;;;;4.47;1.88;;;15.20;99.90;;;14.55;100.00;97980.63;4970789;28;20074;-79
2023/04/30 09:41:00;;;;;;;3.88;1.60;;;15.20;99.90;;;14.61;100.00;97975.94;4970569;28;20072;-80
2023/04/30 09:43:28;;;;;;;6.47;1.88;;;15.30;99.90;;;15.39;100.00;97988.31;4974527;28;20067;-80
2023/04/30 09:45:58;;;;;;;4.07;2.05;;;15.60;99.90;;;15.73;100.00;97973.38;4960870;28;20057;-80
2023/04/30 09:48:27;;;;;;;5.30;2.45;;;16.00;99.90;;;15.46;100.00;97979.19;4954320;28;20058;-78
2023/04/30 09:50:55;;;;;;;5.90;3.05;;;16.10;99.90;;;14.63;100.00;97981.09;4973252;28;20161;-79
2023/04/30 09:53:23;;;;;;;4.55;2.85;;;16.00;99.90;;;15.20;100.00;97984.13;4972823;28;20111;-79
2023/04/30 09:55:51;;;;;;;9.68;3.90;;;15.80;99.90;;;14.85;100.00;97988.66;4981883;28;20077;-81
2023/04/30 09:58:19;;;;;;;7.05;3.78;;;15.80;99.90;;;14.44;100.00;97987.25;4980680;28;20051;-80
2023/04/30 10:00:48;;;;;;;5.25;3.40;;;15.50;99.90;;;14.31;100.00;97994.00;4958383;28;20074;-80
2023/04/30 10:03:16;;;;;;;6.82;3.10;;;15.40;99.90;;;14.77;100.00;97985.59;4962814;28;20046;-80
2023/04/30 10:05:47;;;;;;;6.90;2.65;;;15.40;99.90;;;14.33;100.00;97984.34;4974831;28;20051;-80
2023/04/30 10:08:29;;;;;;;9.85;2.78;;;15.40;99.90;;;14.26;100.00;97993.41;4968943;28;20415;-79
2023/04/30 10:11:07;;;;;;;6.03;3.57;;;15.20;99.90;;;13.83;100.00;97992.94;4965261;28;20499;-79
2023/04/30 10:13:42;;;;;;;6.32;4.03;;;15.00;99.90;;;14.13;100.00;97995.78;4971426;28;20103;-79